createdAt,value
2023-03-26T00:01:52.846Z,7.18
2023-03-26T00:04:19.688Z,7.18
2023-03-26T00:06:46.606Z,7.15
2023-03-26T00:09:13.758Z,7.20
2023-03-26T00:11:40.749Z,7.17
2023-03-26T00:14:07.762Z,7.15
2023-03-26T00:16:34.602Z,7.15
2023-03-26T00:19:02.823Z,7.14
2023-03-26T00:21:30.461Z,7.13
2023-03-26T00:23:58.977Z,7.14
2023-03-26T00:26:26.877Z,7.12
2023-03-26T00:28:53.555Z,7.10
2023-03-26T00:31:20.266Z,7.09
2023-03-26T00:33:46.967Z,7.10
2023-03-26T00:36:16.899Z,7.10
2023-03-26T00:38:44.919Z,7.09
2023-03-26T00:41:13.736Z,7.08
2023-03-26T00:43:40.750Z,7.05
2023-03-26T00:46:07.744Z,6.94
2023-03-26T00:48:44.404Z,6.80
2023-03-26T00:51:13.556Z,6.67
2023-03-26T00:53:42.438Z,6.60
2023-03-26T00:56:09.684Z,6.51
2023-03-26T00:58:37.178Z,6.45
2023-03-26T01:01:07.472Z,6.37
2023-03-26T01:03:36.491Z,6.36
2023-03-26T01:06:04.589Z,6.29
2023-03-26T01:08:33.725Z,6.40
2023-03-26T01:11:06.395Z,6.43
2023-03-26T01:13:37.520Z,6.46
2023-03-26T01:16:09.333Z,6.49
2023-03-26T01:18:38.118Z,6.52
2023-03-26T01:21:05.539Z,6.52
2023-03-26T01:23:39.749Z,6.56
2023-03-26T01:26:16.521Z,6.55
2023-03-26T01:28:43.588Z,6.56
2023-03-26T01:31:18.283Z,6.60
2023-03-26T01:33:49.743Z,6.63
2023-03-26T01:36:21.501Z,6.61
2023-03-26T01:38:54.695Z,6.61
2023-03-26T01:41:31.801Z,6.59
2023-03-26T01:44:06.457Z,6.49
2023-03-26T01:46:34.626Z,6.45
2023-03-26T01:49:02.595Z,6.36
2023-03-26T01:51:32.706Z,6.31
2023-03-26T01:54:00.674Z,6.18
2023-03-26T01:56:36.911Z,6.20
2023-03-26T01:59:18.485Z,6.13
2023-03-26T02:01:55.521Z,6.07
2023-03-26T02:04:29.919Z,6.02
2023-03-26T02:07:02.555Z,5.96
2023-03-26T02:09:33.518Z,5.81
2023-03-26T02:12:03.638Z,5.76
2023-03-26T02:14:30.749Z,5.75
2023-03-26T02:16:57.485Z,5.86
2023-03-26T02:19:24.697Z,5.87
2023-03-26T02:21:51.670Z,5.88
2023-03-26T02:24:19.902Z,5.93
2023-03-26T02:26:49.255Z,6.00
2023-03-26T02:29:17.880Z,6.07
2023-03-26T02:31:45.175Z,6.13
2023-03-26T02:34:12.154Z,6.15
2023-03-26T02:36:42.719Z,6.12
2023-03-26T02:39:10.008Z,6.14
2023-03-26T02:41:38.553Z,6.16
2023-03-26T02:44:08.717Z,6.20
2023-03-26T02:47:15.274Z,6.24
2023-03-26T02:50:11.037Z,6.17
2023-03-26T02:53:15.810Z,6.03
2023-03-26T02:55:46.616Z,5.88
2023-03-26T02:58:13.899Z,5.75
2023-03-26T03:00:40.872Z,5.58
2023-03-26T03:03:32.274Z,5.48
2023-03-26T03:05:59.470Z,5.44
2023-03-26T03:08:55.556Z,5.38
2023-03-26T03:11:34.923Z,5.31
2023-03-26T03:14:01.972Z,5.17
2023-03-26T03:16:30.999Z,5.18
2023-03-26T03:19:04.443Z,5.23
2023-03-26T03:21:37.110Z,5.21
2023-03-26T03:24:04.260Z,5.21
2023-03-26T03:26:35.325Z,5.20
2023-03-26T03:29:13.453Z,5.22
2023-03-26T03:31:40.336Z,5.21
2023-03-26T03:34:16.530Z,5.18
2023-03-26T03:36:48.573Z,5.19
2023-03-26T03:39:28.283Z,5.19
2023-03-26T03:41:55.142Z,5.18
2023-03-26T03:44:22.261Z,5.08
2023-03-26T03:46:49.579Z,5.00
2023-03-26T03:49:17.826Z,4.98
2023-03-26T03:51:44.940Z,4.89
2023-03-26T03:54:23.099Z,4.96
2023-03-26T03:57:08.929Z,5.02
2023-03-26T03:59:48.049Z,5.00
2023-03-26T04:02:16.957Z,4.92
2023-03-26T04:04:56.809Z,4.86
2023-03-26T04:07:24.285Z,4.88
2023-03-26T04:10:15.453Z,4.85
2023-03-26T04:13:01.469Z,4.75
2023-03-26T04:15:54.505Z,4.67
2023-03-26T04:18:23.139Z,4.75
2023-03-26T04:20:51.428Z,4.78
2023-03-26T04:23:25.621Z,4.83
2023-03-26T04:26:02.764Z,4.83
2023-03-26T04:28:45.564Z,4.86
2023-03-26T04:31:19.899Z,4.88
2023-03-26T04:33:47.421Z,4.91
2023-03-26T04:36:18.157Z,4.99
2023-03-26T04:38:49.234Z,5.04
2023-03-26T04:41:18.083Z,5.09
2023-03-26T04:43:54.077Z,5.10
2023-03-26T04:46:39.615Z,5.10
2023-03-26T04:49:12.702Z,5.05
2023-03-26T04:51:41.894Z,5.06
2023-03-26T04:54:45.206Z,5.13
2023-03-26T04:57:21.237Z,5.14
2023-03-26T04:59:56.548Z,5.12
2023-03-26T05:02:23.509Z,5.03
2023-03-26T05:04:53.144Z,4.98
2023-03-26T05:07:22.951Z,4.87
2023-03-26T05:09:55.330Z,4.85
2023-03-26T05:12:23.561Z,4.79
2023-03-26T05:14:59.055Z,4.74
2023-03-26T05:17:52.048Z,4.66
2023-03-26T05:20:28.973Z,4.65
2023-03-26T05:22:57.322Z,4.67
2023-03-26T05:25:27.999Z,4.72
2023-03-26T05:27:55.940Z,4.79
2023-03-26T05:30:26.799Z,4.96
2023-03-26T05:32:58.449Z,5.16
2023-03-26T05:35:30.685Z,5.25
2023-03-26T05:37:58.904Z,5.32
2023-03-26T05:40:26.541Z,5.38
2023-03-26T05:43:15.965Z,5.53
2023-03-26T05:45:49.692Z,5.69
2023-03-26T05:48:27.536Z,5.82
2023-03-26T05:50:56.302Z,5.92
2023-03-26T05:53:27.166Z,6.04
2023-03-26T05:56:22.932Z,6.13
2023-03-26T05:59:14.315Z,6.21
2023-03-26T06:02:12.888Z,6.27
2023-03-26T06:05:04.247Z,6.36
2023-03-26T06:07:57.326Z,6.44
2023-03-26T06:10:31.656Z,6.46
2023-03-26T06:12:58.629Z,6.51
2023-03-26T06:15:25.407Z,6.61
2023-03-26T06:18:06.014Z,6.80
2023-03-26T06:21:05.801Z,7.13
2023-03-26T06:24:05.551Z,7.25
2023-03-26T06:27:05.290Z,7.15
2023-03-26T06:29:54.990Z,7.13
2023-03-26T06:32:35.895Z,7.09
2023-03-26T06:35:12.960Z,7.02
2023-03-26T06:37:40.391Z,7.05
2023-03-26T06:40:08.770Z,7.04
2023-03-26T06:43:08.109Z,6.99
2023-03-26T06:46:00.160Z,6.98
2023-03-26T06:48:32.632Z,6.99
2023-03-26T06:51:25.774Z,7.01
2023-03-26T06:54:12.600Z,7.00
2023-03-26T06:56:48.756Z,7.00
2023-03-26T06:59:26.133Z,7.01
2023-03-26T07:02:11.873Z,7.06
2023-03-26T07:04:57.395Z,7.05
2023-03-26T07:07:59.916Z,6.99
2023-03-26T07:10:45.487Z,7.06
2023-03-26T07:13:28.646Z,7.08
2023-03-26T07:16:15.512Z,7.07
2023-03-26T07:19:00.656Z,7.03
2023-03-26T07:21:33.980Z,6.99
2023-03-26T07:24:09.182Z,6.98
2023-03-26T07:27:16.744Z,6.89
2023-03-26T07:29:48.643Z,6.92
2023-03-26T07:32:52.228Z,6.93
2023-03-26T07:35:47.016Z,6.81
2023-03-26T07:38:54.954Z,6.82
2023-03-26T07:41:47.063Z,6.88
2023-03-26T07:44:43.612Z,6.83
2023-03-26T07:47:31.868Z,6.90
2023-03-26T07:50:25.558Z,6.99
2023-03-26T07:53:25.452Z,7.02
2023-03-26T07:56:06.109Z,7.10
2023-03-26T07:59:04.304Z,7.01
2023-03-26T08:01:56.514Z,7.07
2023-03-26T08:04:52.132Z,7.12
2023-03-26T08:07:52.869Z,7.27
2023-03-26T08:10:30.340Z,7.23
2023-03-26T08:13:16.540Z,7.36
2023-03-26T08:15:49.713Z,7.38
2023-03-26T08:18:27.295Z,7.54
2023-03-26T08:20:58.454Z,7.58
2023-03-26T08:23:32.016Z,7.58
2023-03-26T08:26:04.553Z,7.69
2023-03-26T08:28:49.538Z,7.68
2023-03-26T08:31:18.645Z,7.91
2023-03-26T08:33:45.528Z,7.83
2023-03-26T08:36:12.390Z,8.10
2023-03-26T08:38:40.505Z,8.20
2023-03-26T08:41:35.178Z,8.18
2023-03-26T08:44:37.077Z,8.41
2023-03-26T08:47:34.811Z,8.51
2023-03-26T08:50:43.846Z,8.53
2023-03-26T08:53:40.138Z,8.67
2023-03-26T08:56:21.716Z,8.55
2023-03-26T08:59:25.874Z,8.43
2023-03-26T09:02:15.769Z,8.49
2023-03-26T09:05:26.456Z,8.44
2023-03-26T09:08:22.465Z,8.26
2023-03-26T09:11:07.874Z,7.96
2023-03-26T09:14:09.152Z,8.26
2023-03-26T09:16:59.106Z,8.36
2023-03-26T09:19:57.151Z,8.65
2023-03-26T09:22:47.064Z,8.75
2023-03-26T09:25:29.735Z,8.88
2023-03-26T09:28:22.193Z,8.74
2023-03-26T09:31:20.809Z,8.81
2023-03-26T09:33:55.623Z,8.93
2023-03-26T09:36:35.219Z,8.93
2023-03-26T09:39:09.620Z,8.98
2023-03-26T09:41:42.985Z,9.23
2023-03-26T09:44:34.167Z,9.23
2023-03-26T09:47:34.132Z,9.57
2023-03-26T09:50:22.982Z,9.67
2023-03-26T09:53:08.943Z,9.16
2023-03-26T09:55:50.010Z,9.27
2023-03-26T09:58:52.065Z,9.29
2023-03-26T10:01:29.533Z,9.49
2023-03-26T10:04:22.110Z,10.09
2023-03-26T10:06:57.873Z,10.44
2023-03-26T10:09:41.113Z,10.34
2023-03-26T10:12:20.826Z,10.32
2023-03-26T10:15:01.131Z,10.24
2023-03-26T10:17:38.630Z,10.28
2023-03-26T10:20:36.631Z,10.06
2023-03-26T10:23:18.557Z,10.11
2023-03-26T10:25:58.261Z,9.83
2023-03-26T10:28:51.342Z,10.26
2023-03-26T10:31:26.912Z,10.34
2023-03-26T10:34:02.514Z,10.35
2023-03-26T10:36:32.371Z,10.50
2023-03-26T10:39:36.836Z,10.95
2023-03-26T10:42:20.408Z,10.58
2023-03-26T10:45:10.324Z,10.69
2023-03-26T10:48:03.405Z,10.97
2023-03-26T10:50:40.591Z,11.42
2023-03-26T10:53:12.859Z,10.90
2023-03-26T10:55:44.209Z,11.67
2023-03-26T10:58:18.304Z,11.53
2023-03-26T11:00:54.840Z,11.59
2023-03-26T11:03:46.108Z,11.50
2023-03-26T11:06:31.111Z,11.60
2023-03-26T11:09:08.831Z,11.56
2023-03-26T11:11:44.128Z,11.24
2023-03-26T11:14:31.859Z,11.33
2023-03-26T11:17:10.100Z,11.02
2023-03-26T11:19:47.537Z,11.71
2023-03-26T11:22:27.467Z,12.51
2023-03-26T11:25:20.068Z,13.06
2023-03-26T11:28:11.248Z,12.17
2023-03-26T11:30:46.906Z,11.02
2023-03-26T11:33:18.740Z,10.80
2023-03-26T11:35:49.333Z,10.19
2023-03-26T11:38:21.946Z,9.60
2023-03-26T11:40:52.423Z,10.05
2023-03-26T11:43:39.234Z,10.30
2023-03-26T11:46:10.307Z,10.47
2023-03-26T11:48:41.696Z,10.35
2023-03-26T11:51:11.227Z,9.88
2023-03-26T11:53:38.336Z,10.27
2023-03-26T11:56:12.506Z,9.68
2023-03-26T11:58:47.533Z,9.51
2023-03-26T12:01:16.226Z,9.57
2023-03-26T12:03:43.082Z,9.57
2023-03-26T12:06:24.246Z,9.19
2023-03-26T12:08:51.292Z,9.51
2023-03-26T12:11:23.521Z,9.33
2023-03-26T12:13:55.428Z,9.63
2023-03-26T12:16:23.102Z,9.71
2023-03-26T12:18:59.812Z,10.13
2023-03-26T12:21:26.787Z,9.54
2023-03-26T12:23:59.938Z,9.69
2023-03-26T12:26:37.949Z,9.62
2023-03-26T12:29:21.514Z,9.55
2023-03-26T12:32:03.698Z,9.31
2023-03-26T12:34:33.277Z,9.54
2023-03-26T12:37:00.177Z,9.42
2023-03-26T12:40:07.794Z,9.20
2023-03-26T12:44:47.973Z,9.52
2023-03-26T12:45:20.124Z,9.50
2023-03-26T12:48:00.250Z,9.21
2023-03-26T12:50:42.003Z,9.11
2023-03-26T12:53:26.803Z,9.35
2023-03-26T12:56:01.557Z,9.05
2023-03-26T12:59:06.772Z,8.63
2023-03-26T13:01:54.563Z,8.50
2023-03-26T13:07:37.500Z,8.77
2023-03-26T13:10:34.667Z,8.50
2023-03-26T13:13:18.600Z,8.51
2023-03-26T13:15:49.370Z,8.23
2023-03-26T13:18:31.985Z,8.12
2023-03-26T13:21:04.778Z,8.33
2023-03-26T13:23:46.900Z,8.25
2023-03-26T13:26:26.591Z,8.50
2023-03-26T13:29:04.652Z,8.40
2023-03-26T13:31:37.571Z,8.31
2023-03-26T13:34:18.187Z,8.72
2023-03-26T13:36:55.836Z,8.53
2023-03-26T13:39:30.460Z,8.80
2023-03-26T13:42:14.012Z,8.54
2023-03-26T13:45:04.500Z,8.21
2023-03-26T13:47:36.428Z,8.68
2023-03-26T13:50:24.707Z,8.81
2023-03-26T13:53:00.867Z,9.04
2023-03-26T13:55:33.036Z,9.10
2023-03-26T13:58:05.943Z,8.86
2023-03-26T14:00:50.500Z,8.83
2023-03-26T14:03:35.504Z,8.76
2023-03-26T14:06:12.991Z,8.29
2023-03-26T14:08:44.972Z,8.06
2023-03-26T14:11:17.493Z,7.94
2023-03-26T14:13:49.903Z,8.02
2023-03-26T14:16:21.483Z,8.15
2023-03-26T14:18:56.619Z,8.08
2023-03-26T14:21:49.412Z,8.30
2023-03-26T14:24:43.829Z,8.35
2023-03-26T14:27:24.470Z,8.48
2023-03-26T14:30:20.716Z,8.33
2023-03-26T14:32:56.929Z,8.20
2023-03-26T14:35:32.579Z,7.87
2023-03-26T14:38:41.397Z,7.65
2023-03-26T14:41:24.473Z,7.89
2023-03-26T14:44:27.712Z,7.66
2023-03-26T14:47:15.807Z,7.99
2023-03-26T14:50:15.133Z,8.01
2023-03-26T14:52:47.791Z,8.21
2023-03-26T14:55:37.422Z,8.12
2023-03-26T14:58:43.359Z,7.97
2023-03-26T15:01:23.864Z,8.09
2023-03-26T15:04:27.336Z,8.21
2023-03-26T15:07:23.583Z,7.85
2023-03-26T15:10:30.361Z,7.59
2023-03-26T15:13:14.132Z,7.47
2023-03-26T15:16:04.454Z,7.67
2023-03-26T15:19:14.344Z,7.76
2023-03-26T15:22:13.926Z,7.63
2023-03-26T15:25:25.329Z,7.63
2023-03-26T15:28:24.863Z,7.75
2023-03-26T15:31:11.253Z,7.65
2023-03-26T15:34:05.731Z,7.59
2023-03-26T15:37:02.261Z,7.35
2023-03-26T15:40:00.082Z,7.45
2023-03-26T15:42:38.355Z,7.54
2023-03-26T15:45:34.801Z,7.31
2023-03-26T15:48:44.020Z,7.06
2023-03-26T15:51:46.060Z,7.02
2023-03-26T15:54:22.633Z,7.56
2023-03-26T15:57:07.852Z,7.81
2023-03-26T15:59:50.172Z,8.18
2023-03-26T16:02:27.796Z,8.10
2023-03-26T16:08:18.058Z,7.81
2023-03-26T16:10:51.806Z,7.73
2023-03-26T16:13:30.860Z,7.55
2023-03-26T16:16:45.827Z,7.15
2023-03-26T16:19:52.325Z,7.20
2023-03-26T16:22:55.124Z,6.87
2023-03-26T16:25:29.060Z,6.73
2023-03-26T16:28:31.277Z,6.74
2023-03-26T16:31:38.477Z,6.83
2023-03-26T16:34:25.466Z,6.90
2023-03-26T16:36:52.983Z,6.82
2023-03-26T16:39:25.013Z,6.78
2023-03-26T16:42:06.205Z,6.72
2023-03-26T16:44:43.388Z,6.72
2023-03-26T16:47:21.324Z,6.58
2023-03-26T16:50:08.997Z,6.51
2023-03-26T16:52:44.326Z,6.49
2023-03-26T16:55:22.422Z,6.50
2023-03-26T16:57:56.778Z,6.46
2023-03-26T17:00:45.840Z,6.46
2023-03-26T17:03:23.353Z,6.41
2023-03-26T17:06:04.818Z,6.40
2023-03-26T17:08:39.820Z,6.36
2023-03-26T17:11:19.849Z,6.31
2023-03-26T17:13:55.408Z,6.37
2023-03-26T17:16:26.984Z,6.31
2023-03-26T17:19:00.721Z,6.32
2023-03-26T17:21:45.918Z,6.28
2023-03-26T17:24:25.035Z,6.23
2023-03-26T17:27:42.069Z,6.15
2023-03-26T17:33:23.685Z,6.09
2023-03-26T17:36:16.436Z,6.06
2023-03-26T17:39:18.058Z,6.03
2023-03-26T17:42:17.702Z,6.00
2023-03-26T17:44:47.600Z,6.02
2023-03-26T17:47:30.663Z,6.05
2023-03-26T17:50:01.479Z,6.03
2023-03-26T17:52:40.063Z,5.97
2023-03-26T17:55:11.769Z,5.92
2023-03-26T17:57:45.947Z,5.90
2023-03-26T18:00:17.595Z,5.85
2023-03-26T18:02:49.950Z,5.80
2023-03-26T18:05:22.809Z,5.74
2023-03-26T18:08:15.096Z,5.66
2023-03-26T18:11:01.656Z,5.60
2023-03-26T18:14:00.792Z,5.60
2023-03-26T18:16:32.468Z,5.58
2023-03-26T18:19:11.410Z,5.54
2023-03-26T18:21:40.326Z,5.54
2023-03-26T18:24:13.439Z,5.61
2023-03-26T18:26:42.881Z,5.60
2023-03-26T18:29:18.154Z,5.59
2023-03-26T18:31:46.543Z,5.56
2023-03-26T18:34:16.038Z,5.52
2023-03-26T18:36:43.014Z,5.45
2023-03-26T18:39:12.645Z,5.48
2023-03-26T18:41:41.375Z,5.46
2023-03-26T18:44:18.527Z,5.44
2023-03-26T18:46:54.909Z,5.49
2023-03-26T18:49:27.164Z,5.52
2023-03-26T18:51:57.495Z,5.49
2023-03-26T18:54:29.114Z,5.51
2023-03-26T18:56:57.943Z,5.45
2023-03-26T18:59:28.457Z,5.43
2023-03-26T19:01:56.995Z,5.40
2023-03-26T19:04:25.751Z,5.36
2023-03-26T19:06:53.466Z,5.32
2023-03-26T19:09:31.201Z,5.30
2023-03-26T19:12:05.815Z,5.36
2023-03-26T19:14:34.650Z,5.38
2023-03-26T19:17:03.386Z,5.34
2023-03-26T19:19:33.891Z,5.27
2023-03-26T19:22:02.740Z,5.20
2023-03-26T19:24:29.860Z,5.18
2023-03-26T19:26:57.839Z,5.25
2023-03-26T19:29:28.641Z,5.27
2023-03-26T19:32:04.574Z,5.19
2023-03-26T19:34:32.964Z,5.18
2023-03-26T19:37:02.295Z,5.19
2023-03-26T19:39:40.613Z,5.25
2023-03-26T19:42:15.164Z,5.21
2023-03-26T19:44:43.609Z,5.22
2023-03-26T19:47:19.053Z,5.20
2023-03-26T19:49:53.695Z,5.17
2023-03-26T19:52:22.730Z,5.22
2023-03-26T19:54:59.459Z,5.39
2023-03-26T19:57:28.568Z,5.49
2023-03-26T19:59:55.397Z,5.50
2023-03-26T20:02:24.005Z,5.54
2023-03-26T20:04:51.225Z,5.60
2023-03-26T20:07:19.376Z,5.60
2023-03-26T20:09:48.536Z,5.51
2023-03-26T20:12:19.672Z,5.40
2023-03-26T20:14:47.898Z,5.33
2023-03-26T20:17:16.932Z,5.32
2023-03-26T20:19:46.934Z,5.38
2023-03-26T20:22:16.240Z,5.44
2023-03-26T20:24:44.229Z,5.52
2023-03-26T20:27:11.073Z,5.56
2023-03-26T20:29:38.289Z,5.51
2023-03-26T20:32:06.903Z,5.40
2023-03-26T20:34:33.618Z,5.13
2023-03-26T20:37:01.883Z,5.06
2023-03-26T20:39:28.758Z,5.06
2023-03-26T20:41:55.903Z,5.05
2023-03-26T20:44:23.138Z,5.02
2023-03-26T20:46:50.673Z,5.03
2023-03-26T20:49:25.570Z,5.01
2023-03-26T20:51:54.395Z,4.94
2023-03-26T20:54:27.384Z,4.89
2023-03-26T20:56:54.416Z,4.82
2023-03-26T20:59:23.520Z,4.84
2023-03-26T21:01:51.120Z,4.88
2023-03-26T21:04:19.547Z,4.98
2023-03-26T21:06:46.727Z,4.94
2023-03-26T21:09:15.984Z,5.01
2023-03-26T21:11:53.440Z,5.06
2023-03-26T21:14:22.958Z,5.18
2023-03-26T21:16:50.574Z,5.18
2023-03-26T21:19:18.229Z,5.17
2023-03-26T21:21:52.846Z,5.15
2023-03-26T21:24:29.869Z,5.13
2023-03-26T21:27:02.948Z,5.16
2023-03-26T21:29:30.124Z,5.11
2023-03-26T21:31:57.351Z,5.11
2023-03-26T21:34:24.597Z,5.12
2023-03-26T21:36:52.129Z,5.13
2023-03-26T21:39:19.360Z,5.12
2023-03-26T21:41:49.013Z,5.09
2023-03-26T21:44:34.752Z,5.05
2023-03-26T21:47:02.091Z,4.92
2023-03-26T21:49:29.519Z,4.88
2023-03-26T21:51:56.804Z,4.90
2023-03-26T21:54:25.940Z,4.87
2023-03-26T21:57:10.557Z,4.86
2023-03-26T21:59:48.609Z,4.83
2023-03-26T22:02:23.103Z,4.92
2023-03-26T22:04:56.425Z,4.97
2023-03-26T22:07:27.538Z,4.99
2023-03-26T22:09:54.763Z,5.01
2023-03-26T22:12:21.531Z,5.02
2023-03-26T22:14:49.687Z,5.09
2023-03-26T22:17:16.420Z,5.14
2023-03-26T22:19:43.520Z,5.19
2023-03-26T22:22:10.275Z,5.27
2023-03-26T22:24:37.088Z,5.31
2023-03-26T22:27:04.021Z,5.23
2023-03-26T22:29:30.752Z,5.00
2023-03-26T22:31:58.880Z,4.88
2023-03-26T22:34:25.730Z,4.80
2023-03-26T22:36:52.432Z,4.71
2023-03-26T22:39:19.171Z,4.70
2023-03-26T22:41:46.016Z,4.63
2023-03-26T22:44:19.771Z,4.62
2023-03-26T22:46:47.739Z,4.58
2023-03-26T22:49:15.840Z,4.52
2023-03-26T22:51:42.556Z,4.46
2023-03-26T22:54:09.294Z,4.46
2023-03-26T22:56:36.372Z,4.40
2023-03-26T22:59:03.300Z,4.44
2023-03-26T23:01:30.056Z,4.45
2023-03-26T23:03:57.051Z,4.40
2023-03-26T23:06:25.169Z,4.39
2023-03-26T23:08:52.001Z,4.37
2023-03-26T23:11:20.542Z,4.37
2023-03-26T23:13:48.095Z,4.42
2023-03-26T23:16:16.266Z,4.48
2023-03-26T23:18:43.639Z,4.48
2023-03-26T23:21:13.800Z,4.50
2023-03-26T23:23:42.112Z,4.50
2023-03-26T23:26:08.931Z,4.59
2023-03-26T23:28:35.962Z,4.70
2023-03-26T23:31:04.889Z,4.48
2023-03-26T23:33:33.729Z,4.13
2023-03-26T23:36:01.797Z,3.97
2023-03-26T23:38:29.160Z,3.72
2023-03-26T23:41:13.599Z,3.66
2023-03-26T23:43:40.309Z,3.57
2023-03-26T23:46:22.019Z,3.54
2023-03-26T23:48:49.527Z,3.48
2023-03-26T23:51:16.353Z,3.48
2023-03-26T23:53:43.182Z,3.45
2023-03-26T23:56:10.083Z,3.42
2023-03-26T23:58:38.206Z,3.37
